.
WxDataArchive / Data Records for 2006-05-02
2006-05-01 May 2006 2006-05-03

Data Records for Tuesday, 02 May 2006

Time	Temp	Chill	HIndex	Humid	Dewpt	 Wind 	HiWind	WindDir	Rain 	Barom 
-----	----	-----	------	-----	-----	------	------	-------	-----	----- 
00:00	56.2	56.2	56.2	90	53.3	0	0	---	0.00	30.017 
00:05	56.0	56.0	56.0	90	53.1	0	0	---	0.00	30.017 
00:10	56.0	56.0	56.0	90	53.1	0	0	---	0.00	30.017 
00:15	55.9	55.9	55.9	90	53.0	0	0	---	0.00	30.013 
00:20	55.7	55.7	55.7	90	52.8	0	0	---	0.00	30.013 
00:25	55.6	55.6	55.6	90	52.7	0	0	---	0.00	30.013 
00:30	55.4	55.4	55.4	90	52.5	0	0	---	0.00	30.007 
00:35	55.1	55.1	55.1	90	52.2	0	0	---	0.00	30.007 
00:40	55.0	55.0	55.0	91	52.4	0	0	---	0.00	30.007 
00:45	54.8	54.8	54.8	91	52.2	0	0	---	0.00	30.015 
00:50	54.7	54.7	54.7	91	52.1	0	0	---	0.00	30.015 
00:55	54.5	54.5	54.5	92	52.2	0	0	---	0.00	30.015 
01:00	54.5	54.5	54.5	92	52.2	0	0	---	0.00	30.016 
01:05	54.5	54.5	54.5	92	52.2	0	0	---	0.00	30.016 
01:10	54.5	54.5	54.5	92	52.2	0	0	---	0.00	30.016 
01:15	54.5	54.5	54.5	93	52.5	0	1	112	0.00	30.010 
01:20	54.4	54.4	54.4	93	52.4	0	0	---	0.00	30.010 
01:25	54.2	54.2	54.2	93	52.2	0	0	---	0.00	30.010 
01:30	54.1	54.1	54.1	92	51.8	0	0	---	0.00	30.001 
01:35	53.9	53.9	53.9	92	51.6	0	0	---	0.00	30.001 
01:40	53.8	53.8	53.8	92	51.5	0	0	---	0.00	30.001 
01:45	53.6	53.6	53.6	92	51.3	0	0	---	0.00	29.997 
01:50	53.5	53.5	53.5	92	51.2	0	0	---	0.00	29.997 
01:55	53.3	53.3	53.3	93	51.3	0	0	---	0.00	29.997 
02:00	53.3	53.3	53.3	93	51.3	0	0	---	0.00	29.993 
02:05	53.5	53.5	53.5	94	51.8	0	0	---	0.00	29.993 
02:10	53.6	53.6	53.6	94	51.9	0	0	---	0.00	29.993 
02:15	53.9	53.9	53.9	94	52.2	0	1	112	0.00	29.982 
02:20	54.1	54.1	54.1	94	52.4	0	0	---	0.00	29.982 
02:25	54.4	54.4	54.4	94	52.7	0	1	112	0.00	29.982 
02:30	54.4	54.4	54.4	94	52.7	0	0	---	0.00	29.975 
02:35	54.4	54.4	54.4	94	52.7	0	0	---	0.00	29.975 
02:40	54.2	54.2	54.2	94	52.5	0	0	---	0.00	29.975 
02:45	54.1	54.1	54.1	94	52.4	0	0	---	0.00	29.969 
02:50	53.8	53.8	53.8	94	52.1	0	0	---	0.00	29.969 
02:55	53.6	53.6	53.6	94	51.9	0	0	---	0.00	29.969 
03:00	53.5	53.5	53.5	94	51.8	0	0	---	0.00	29.968 
03:05	53.5	53.5	53.5	94	51.8	0	1	112	0.00	29.968 
03:10	53.6	53.6	53.6	94	51.9	0	0	---	0.00	29.968 
03:15	53.8	53.8	53.8	94	52.1	0	0	---	0.00	29.954 
03:20	53.8	53.8	53.8	94	52.1	0	1	112	0.00	29.954 
03:25	53.8	53.8	53.8	94	52.1	0	1	112	0.00	29.954 
03:30	53.9	53.9	53.9	94	52.2	0	0	---	0.00	29.944 
03:35	53.9	53.9	53.9	94	52.2	0	0	---	0.00	29.944 
03:40	54.1	54.1	54.1	94	52.4	0	1	112	0.00	29.944 
03:45	54.4	54.4	54.4	93	52.4	0	1	112	0.00	29.935 
03:50	54.5	54.5	54.5	92	52.2	0	0	---	0.00	29.935 
03:55	54.7	54.7	54.7	91	52.1	0	0	---	0.00	29.935 
04:00	55.0	55.0	55.0	90	52.1	0	0	---	0.00	29.932 
04:05	55.1	55.1	55.1	89	51.9	0	0	---	0.00	29.932 
04:10	55.3	55.3	55.3	89	52.1	0	0	---	0.00	29.932 
04:15	55.4	55.4	55.4	88	51.9	0	0	---	0.00	29.930 
04:20	55.6	55.6	55.6	88	52.1	0	1	112	0.00	29.930 
04:25	55.7	55.7	55.7	88	52.2	0	1	112	0.00	29.930 
04:30	55.7	55.7	55.7	88	52.2	0	1	112	0.00	29.926 
04:35	55.7	55.7	55.7	88	52.2	0	0	---	0.00	29.926 
04:40	55.7	55.7	55.7	88	52.2	0	0	---	0.00	29.926 
04:45	55.7	55.7	55.7	88	52.2	0	0	---	0.00	29.923 
04:50	55.7	55.7	55.7	88	52.2	0	1	112	0.00	29.923 
04:55	55.9	55.9	55.9	88	52.4	0	2	112	0.00	29.923 
05:00	56.0	56.0	56.0	88	52.5	1	2	112	0.00	29.917 
05:05	56.0	56.0	56.0	88	52.5	0	2	112	0.01	29.917 
05:10	56.0	56.0	56.0	88	52.5	1	1	112	0.00	29.917 
05:15	56.2	56.2	56.2	88	52.7	0	1	112	0.00	29.910 
05:20	56.2	56.2	56.2	89	53.0	0	1	112	0.00	29.910 
05:25	56.0	56.0	56.0	89	52.8	0	1	112	0.00	29.910 
05:30	56.0	56.0	56.0	89	52.8	0	1	112	0.00	29.908 
05:35	56.0	56.0	56.0	90	53.1	0	2	112	0.01	29.908 
05:40	55.9	55.9	55.9	90	53.0	0	2	112	0.01	29.908 
05:45	55.9	55.9	55.9	91	53.3	1	2	112	0.01	29.913 
05:50	55.7	55.7	55.7	92	53.4	1	2	112	0.02	29.913 
05:55	55.7	55.7	55.7	92	53.4	1	3	112	0.01	29.913 
06:00	55.7	55.7	55.7	93	53.7	0	1	112	0.00	29.903 
06:05	55.7	55.7	55.7	93	53.7	0	1	112	0.00	29.903 
06:10	55.7	55.7	55.7	93	53.7	0	2	112	0.00	29.903 
06:15	55.9	55.9	55.9	93	53.9	0	2	112	0.00	29.900 
06:20	55.9	55.9	55.9	93	53.9	0	1	112	0.00	29.900 
06:25	56.0	56.0	56.0	93	54.0	0	2	112	0.00	29.900 
06:30	56.2	56.2	56.2	93	54.2	1	2	112	0.01	29.900 
06:35	56.3	56.3	56.3	93	54.3	1	3	135	0.00	29.900 
06:40	56.5	56.5	56.5	93	54.5	1	5	90	0.00	29.900 
06:45	56.5	56.5	56.5	93	54.5	1	4	112	0.00	29.899 
06:50	56.6	56.6	56.6	93	54.6	1	2	112	0.00	29.899 
06:55	56.6	56.6	56.6	93	54.6	1	2	112	0.00	29.899 
07:00	56.6	56.6	56.6	93	54.6	0	2	112	0.01	29.900 
07:05	56.6	56.6	56.6	93	54.6	0	2	112	0.00	29.900 
07:10	56.6	56.6	56.6	93	54.6	0	1	112	0.00	29.900 
07:15	56.6	56.6	56.6	93	54.6	0	1	112	0.00	29.889 
07:20	56.6	56.6	56.6	93	54.6	0	1	112	0.00	29.889 
07:25	56.6	56.6	56.6	94	54.9	0	1	112	0.01	29.889 
07:30	56.5	56.5	56.5	94	54.8	0	0	---	0.00	29.888 
07:35	56.5	56.5	56.5	94	54.8	0	1	112	0.00	29.888 
07:40	56.6	56.6	56.6	94	54.9	0	1	112	0.00	29.888 
07:45	56.5	56.5	56.5	94	54.8	0	2	112	0.01	29.890 
07:50	56.5	56.5	56.5	94	54.8	1	2	112	0.00	29.890 
07:55	56.5	56.5	56.5	94	54.8	0	1	112	0.00	29.890 
08:00	56.5	56.5	56.5	94	54.8	0	2	112	0.00	29.886 
08:05	56.5	56.5	56.5	94	54.8	0	0	---	0.01	29.886 
08:10	56.5	56.5	56.5	94	54.8	0	0	---	0.00	29.886 
08:15	56.5	56.5	56.5	94	54.8	0	0	---	0.00	29.891 
08:20	56.5	56.5	56.5	94	54.8	0	0	---	0.01	29.891 
08:25	56.5	56.5	56.5	94	54.8	0	0	---	0.00	29.891 
08:30	56.5	56.5	56.5	94	54.8	0	1	112	0.00	29.892 
08:35	56.5	56.5	56.5	94	54.8	0	0	---	0.00	29.892 
08:40	56.5	56.5	56.5	94	54.8	0	1	112	0.00	29.892 
08:45	56.6	56.6	56.6	95	55.2	0	1	112	0.01	29.897 
08:50	56.6	56.6	56.6	95	55.2	0	1	112	0.00	29.897 
08:55	56.6	56.6	56.6	95	55.2	0	2	112	0.01	29.897 
09:00	56.5	56.5	56.5	95	55.1	0	2	112	0.01	29.898 
09:05	56.6	56.6	56.6	95	55.2	0	1	112	0.00	29.898 
09:10	56.6	56.6	56.6	95	55.2	0	1	112	0.01	29.898 
09:15	56.6	56.6	56.6	95	55.2	0	1	112	0.01	29.897 
09:20	56.7	56.7	56.7	95	55.3	0	1	112	0.00	29.897 
09:25	56.9	56.9	56.9	95	55.5	0	2	112	0.00	29.897 
09:30	56.9	56.9	56.9	95	55.5	0	1	112	0.01	29.893 
09:35	56.9	56.9	56.9	95	55.5	0	2	112	0.00	29.893 
09:40	56.9	56.9	56.9	95	55.5	0	2	112	0.01	29.893 
09:45	56.9	56.9	56.9	95	55.5	0	2	112	0.00	29.890 
09:50	56.9	56.9	56.9	95	55.5	1	2	112	0.01	29.890 
09:55	56.9	56.9	56.9	95	55.5	1	3	112	0.00	29.890 
10:00	56.9	56.9	56.9	95	55.5	0	2	112	0.00	29.889 
10:05	56.9	56.9	56.9	95	55.5	1	3	90	0.00	29.889 
10:10	57.0	57.0	57.0	95	55.6	0	2	90	0.00	29.889 
10:15	57.0	57.0	57.0	95	55.6	0	2	90	0.00	29.882 
10:20	57.0	57.0	57.0	95	55.6	0	4	90	0.00	29.882 
10:25	57.0	57.0	57.0	95	55.6	0	1	112	0.00	29.882 
10:30	57.0	57.0	57.0	95	55.6	0	1	112	0.00	29.882 
10:35	57.0	57.0	57.0	94	55.3	0	2	112	0.00	29.882 
10:40	57.0	57.0	57.0	94	55.3	1	2	45	0.00	29.882 
10:45	57.0	57.0	57.0	94	55.3	1	3	248	0.01	29.878 
10:50	57.0	57.0	57.0	94	55.3	0	2	248	0.01	29.878 
10:55	57.0	57.0	57.0	94	55.3	0	1	248	0.00	29.878 
11:00	57.2	57.2	57.2	94	55.5	0	3	112	0.01	29.874 
11:05	57.0	57.0	57.0	94	55.3	1	6	135	0.00	29.874 
11:10	56.9	56.9	56.9	94	55.2	2	5	248	0.00	29.874 
11:15	56.9	56.9	56.9	94	55.2	2	6	90	0.00	29.875 
11:20	56.7	56.7	56.7	94	55.0	2	7	248	0.00	29.875 
11:25	56.7	56.7	56.7	94	55.0	2	5	248	0.00	29.875 
11:30	56.9	56.9	56.9	93	54.9	3	7	248	0.00	29.876 
11:35	56.9	56.9	56.9	94	55.2	1	3	248	0.00	29.876 
11:40	57.0	57.0	57.0	94	55.3	2	4	248	0.00	29.876 
11:45	57.2	57.2	57.2	94	55.5	2	4	248	0.00	29.874 
11:50	57.3	57.3	57.3	93	55.3	3	6	248	0.00	29.874 
11:55	57.5	57.5	57.5	93	55.5	2	5	248	0.00	29.874 
12:00	57.6	57.6	57.6	93	55.6	1	3	248	0.00	29.872 
12:05	57.6	57.6	57.6	93	55.6	2	6	270	0.00	29.872 
12:10	57.8	57.8	57.8	93	55.8	2	5	248	0.00	29.872 
12:15	57.8	57.8	57.8	93	55.8	2	6	225	0.00	29.874 
12:20	58.0	58.0	58.0	93	56.0	2	4	270	0.00	29.874 
12:25	58.1	58.1	58.1	93	56.1	2	4	248	0.00	29.874 
12:30	58.1	58.1	58.1	92	55.8	2	3	248	0.00	29.873 
12:35	58.6	58.6	58.6	93	56.6	2	4	248	0.00	29.873 
12:40	59.2	59.2	59.2	92	56.9	3	5	270	0.00	29.873 
12:45	59.6	59.6	59.6	91	57.0	2	5	248	0.00	29.866 
12:50	59.9	59.9	59.9	89	56.6	3	11	270	0.00	29.866 
12:55	59.9	59.9	59.9	88	56.3	2	5	270	0.00	29.866 
13:00	59.9	59.9	59.9	87	56.0	2	8	248	0.00	29.868 
13:05	59.9	59.9	59.9	88	56.3	2	7	248	0.00	29.868 
13:10	60.4	60.4	60.4	88	56.8	2	4	248	0.00	29.868 
13:15	61.0	61.0	61.0	86	56.8	2	6	248	0.00	29.860 
13:20	61.5	61.5	61.5	84	56.6	2	4	248	0.00	29.860 
13:25	62.0	62.0	62.0	84	57.1	2	6	270	0.00	29.860 
13:30	62.6	62.6	62.6	82	57.0	3	7	248	0.00	29.856 
13:35	63.4	63.4	63.4	81	57.5	2	6	248	0.00	29.856 
13:40	63.7	63.7	63.7	78	56.7	2	5	248	0.00	29.856 
13:45	63.4	63.4	63.4	77	56.1	2	5	270	0.00	29.850 
13:50	63.1	63.1	63.1	78	56.1	3	6	270	0.00	29.850 
13:55	63.4	63.4	63.4	76	55.7	2	4	248	0.00	29.850 
14:00	63.9	63.9	63.9	77	56.5	2	5	248	0.00	29.848 
14:05	63.9	63.9	63.9	75	55.8	2	5	248	0.00	29.848 
14:10	63.9	63.9	63.9	75	55.8	1	2	248	0.00	29.848 
14:15	63.7	63.7	63.7	77	56.3	1	2	248	0.00	29.849 
14:20	62.6	62.6	62.6	78	55.6	1	3	315	0.00	29.849 
14:25	62.1	62.1	62.1	81	56.2	1	3	315	0.00	29.849 
14:30	61.5	61.5	61.5	83	56.3	1	4	270	0.01	29.855 
14:35	60.5	60.5	60.5	85	56.0	2	7	292	0.01	29.855 
14:40	59.9	59.9	59.9	88	56.3	1	5	270	0.01	29.855 
14:45	59.8	59.8	59.8	89	56.5	1	3	248	0.00	29.857 
14:50	59.6	59.6	59.6	89	56.4	0	2	248	0.00	29.857 
14:55	59.8	59.8	59.8	91	57.2	0	1	292	0.00	29.857 
15:00	59.9	59.9	59.9	91	57.3	0	2	292	0.00	29.859 
15:05	59.8	59.8	59.8	89	56.5	2	6	270	0.01	29.859 
15:10	59.5	59.5	59.5	90	56.6	2	4	270	0.01	29.859 
15:15	59.3	59.3	59.3	91	56.7	2	4	270	0.00	29.869 
15:20	59.0	59.0	59.0	90	56.1	2	4	292	0.01	29.869 
15:25	59.0	59.0	59.0	90	56.1	1	2	248	0.00	29.869 
15:30	58.9	58.9	58.9	90	56.0	1	3	270	0.00	29.869 
15:35	59.0	59.0	59.0	91	56.4	0	2	270	0.00	29.869 
15:40	59.2	59.2	59.2	91	56.6	1	3	270	0.00	29.869 
15:45	59.2	59.2	59.2	91	56.6	1	4	248	0.00	29.869 
15:50	59.5	59.5	59.5	91	56.9	1	2	248	0.00	29.869 
15:55	60.1	60.1	60.1	91	57.5	2	4	248	0.00	29.869 
16:00	60.5	60.5	60.5	90	57.5	2	4	248	0.00	29.864 
16:05	61.0	61.0	61.0	88	57.4	2	6	270	0.00	29.864 
16:10	61.3	61.3	61.3	88	57.7	1	3	248	0.00	29.864 
16:15	62.0	62.0	62.0	88	58.4	2	5	248	0.00	29.856 
16:20	63.1	63.1	63.1	86	58.8	2	4	270	0.00	29.856 
16:25	63.9	63.9	63.9	82	58.3	3	5	248	0.00	29.856 
16:30	64.7	64.7	64.7	77	57.3	2	5	338	0.00	29.850 
16:35	65.0	65.0	65.0	69	54.6	3	6	315	0.00	29.850 
16:40	65.3	65.3	65.3	69	54.9	3	12	270	0.00	29.850 
16:45	65.3	65.3	65.3	69	54.9	3	6	292	0.00	29.852 
16:50	65.6	65.6	65.6	69	55.1	2	4	270	0.00	29.852 
16:55	65.6	65.6	65.6	69	55.1	2	4	270	0.00	29.852 
17:00	65.6	65.6	65.6	68	54.7	2	4	315	0.00	29.852 
17:05	65.8	65.8	65.8	68	54.9	2	5	315	0.00	29.852 
17:10	65.6	65.6	65.6	65	53.5	3	6	270	0.00	29.852 
17:15	64.8	64.8	64.8	66	53.2	2	4	292	0.00	29.856 
17:20	65.0	65.0	65.0	68	54.2	2	4	270	0.00	29.856 
17:25	65.2	65.2	65.2	66	53.5	3	7	270	0.00	29.856 
17:30	65.3	65.3	65.3	65	53.2	3	5	270	0.00	29.860 
17:35	65.5	65.5	65.5	65	53.4	3	5	315	0.00	29.860 
17:40	65.6	65.6	65.6	64	53.1	3	6	270	0.00	29.860 
17:45	65.6	65.6	65.6	64	53.1	3	6	270	0.00	29.865 
17:50	65.5	65.5	65.5	64	53.0	3	5	248	0.00	29.865 
17:55	65.2	65.2	65.2	65	53.1	2	5	270	0.00	29.865 
18:00	65.0	65.0	65.0	65	52.9	2	4	292	0.00	29.868 
18:05	65.3	65.3	65.3	64	52.8	2	6	315	0.00	29.868 
18:10	65.2	65.2	65.2	64	52.7	2	6	270	0.00	29.868 
18:15	64.5	64.5	64.5	63	51.6	3	6	292	0.00	29.872 
18:20	64.2	64.2	64.2	64	51.8	2	5	248	0.00	29.872 
18:25	64.0	64.0	64.0	64	51.6	2	6	270	0.00	29.872 
18:30	64.0	64.0	64.0	63	51.1	3	10	270	0.00	29.876 
18:35	63.9	63.9	63.9	64	51.5	3	7	270	0.00	29.876 
18:40	63.7	63.7	63.7	64	51.3	2	5	292	0.00	29.876 
18:45	63.5	63.5	63.5	64	51.1	2	5	315	0.00	29.882 
18:50	63.7	63.7	63.7	65	51.7	2	4	270	0.00	29.882 
18:55	63.7	63.7	63.7	65	51.7	2	4	248	0.00	29.882 
19:00	63.7	63.7	63.7	65	51.7	2	4	338	0.00	29.879 
19:05	64.0	64.0	64.0	64	51.6	2	3	292	0.00	29.879 
19:10	64.2	64.2	64.2	64	51.8	2	3	315	0.00	29.879 
19:15	64.2	64.2	64.2	63	51.3	3	5	315	0.00	29.881 
19:20	64.2	64.2	64.2	64	51.8	2	4	270	0.00	29.881 
19:25	64.0	64.0	64.0	63	51.1	3	11	270	0.00	29.881 
19:30	63.7	63.7	63.7	63	50.9	2	7	315	0.00	29.883 
19:35	63.5	63.5	63.5	63	50.7	3	6	270	0.00	29.883 
19:40	63.5	63.5	63.5	62	50.2	2	5	292	0.00	29.883 
19:45	63.4	63.4	63.4	62	50.1	2	4	292	0.00	29.884 
19:50	63.1	63.1	63.1	62	49.9	2	4	338	0.00	29.884 
19:55	62.9	62.9	62.9	62	49.7	3	6	270	0.00	29.884 
20:00	62.7	62.7	62.7	63	49.9	2	6	315	0.00	29.886 
20:05	62.6	62.6	62.6	63	49.8	2	4	292	0.00	29.886 
20:10	62.3	62.3	62.3	64	50.0	2	11	270	0.00	29.886 
20:15	62.1	62.1	62.1	64	49.8	2	5	292	0.00	29.889 
20:20	62.0	62.0	62.0	64	49.7	2	9	270	0.00	29.889 
20:25	61.8	61.8	61.8	65	49.9	2	6	248	0.00	29.889 
20:30	61.5	61.5	61.5	65	49.6	2	4	270	0.00	29.889 
20:35	61.3	61.3	61.3	65	49.4	2	3	270	0.00	29.889 
20:40	61.2	61.2	61.2	65	49.3	2	5	292	0.00	29.889 
20:45	60.9	60.9	60.9	66	49.5	1	3	292	0.00	29.892 
20:50	60.7	60.7	60.7	67	49.7	1	3	270	0.00	29.892 
20:55	60.5	60.5	60.5	68	49.9	1	4	248	0.00	29.892 
21:00	60.2	60.2	60.2	68	49.6	1	3	270	0.00	29.895 
21:05	60.1	60.1	60.1	69	49.9	1	2	248	0.00	29.895 
21:10	59.9	59.9	59.9	69	49.7	1	3	270	0.00	29.895 
21:15	59.8	59.8	59.8	70	50.0	1	2	270	0.00	29.893 
21:20	59.5	59.5	59.5	70	49.7	1	2	270	0.00	29.893 
21:25	59.2	59.2	59.2	71	49.8	1	2	270	0.00	29.893 
21:30	59.0	59.0	59.0	72	50.0	0	2	315	0.00	29.900 
21:35	58.7	58.7	58.7	72	49.7	0	2	315	0.00	29.900 
21:40	58.4	58.4	58.4	73	49.8	0	1	270	0.00	29.900 
21:45	58.3	58.3	58.3	73	49.7	0	2	270	0.00	29.904 
21:50	58.1	58.1	58.1	74	49.9	0	1	270	0.00	29.904 
21:55	58.0	58.0	58.0	74	49.8	0	1	270	0.00	29.904 
22:00	57.8	57.8	57.8	75	49.9	0	1	270	0.00	29.905 
22:05	57.5	57.5	57.5	75	49.6	0	1	270	0.00	29.905 
22:10	57.2	57.2	57.2	76	49.7	0	1	270	0.00	29.905 
22:15	57.0	57.0	57.0	77	49.9	0	1	270	0.00	29.913 
22:20	56.7	56.7	56.7	77	49.6	0	1	270	0.00	29.913 
22:25	56.5	56.5	56.5	77	49.4	0	0	---	0.00	29.913 
22:30	56.2	56.2	56.2	78	49.4	0	0	---	0.00	29.919 
22:35	55.9	55.9	55.9	79	49.5	0	0	---	0.00	29.919 
22:40	55.7	55.7	55.7	80	49.6	0	0	---	0.00	29.919 
22:45	55.4	55.4	55.4	80	49.3	0	0	---	0.00	29.922 
22:50	55.1	55.1	55.1	81	49.4	0	0	---	0.00	29.922 
22:55	55.0	55.0	55.0	81	49.3	0	0	---	0.00	29.922 
23:00	54.7	54.7	54.7	82	49.3	0	0	---	0.00	29.924 
23:05	54.4	54.4	54.4	82	49.0	0	0	---	0.00	29.924 
23:10	54.2	54.2	54.2	83	49.1	0	1	270	0.00	29.924 
23:15	53.9	53.9	53.9	84	49.2	0	0	---	0.00	29.927 
23:20	53.8	53.8	53.8	84	49.1	0	0	---	0.00	29.927 
23:25	53.5	53.5	53.5	84	48.8	0	0	---	0.00	29.927 
23:30	53.3	53.3	53.3	85	48.9	0	0	---	0.00	29.926 
23:35	53.2	53.2	53.2	85	48.8	0	0	---	0.00	29.926 
23:40	53.1	53.1	53.1	86	49.0	0	1	270	0.00	29.926 
23:45	53.1	53.1	53.1	86	49.0	0	1	270	0.00	29.926 
23:50	53.2	53.2	53.2	86	49.1	0	0	---	0.00	29.926 
23:55	53.2	53.2	53.2	86	49.1	0	0	---	0.00	29.926 

CoCoRaHS
IN-AL-39
A2 Web Hosting
Creative Commons License
GoDaddy
Look for:

loaded 2017-12-10 21:14:29 • last modified 2010-11-18 10:43:29
Privacy PolicyDisclaimer
• wx.awcolley.com is powered by PmWiki v.2002016 •
• all content (unless otherwise noted) © 2017 A W Colley